createdAt,value
2023-04-16T00:01:07.012Z,12.18
2023-04-16T00:03:35.353Z,17.25
2023-04-16T00:06:04.030Z,14.40
2023-04-16T00:08:32.193Z,17.20
2023-04-16T00:11:00.492Z,14.55
2023-04-16T00:13:28.912Z,13.88
2023-04-16T00:15:59.107Z,13.27
2023-04-16T00:18:27.795Z,13.20
2023-04-16T00:20:56.426Z,14.02
2023-04-16T00:23:25.784Z,16.30
2023-04-16T00:25:57.398Z,16.92
2023-04-16T00:28:25.733Z,15.95
2023-04-16T00:30:54.023Z,16.48
2023-04-16T00:33:24.881Z,13.38
2023-04-16T00:35:53.262Z,17.27
2023-04-16T00:38:21.390Z,15.00
2023-04-16T00:40:49.670Z,15.82
2023-04-16T00:43:24.971Z,10.45
2023-04-16T00:45:54.701Z,18.08
2023-04-16T00:48:24.849Z,13.10
2023-04-16T00:50:53.307Z,16.30
2023-04-16T00:53:21.496Z,17.15
2023-04-16T00:55:49.903Z,12.63
2023-04-16T00:58:18.318Z,13.57
2023-04-16T01:00:46.468Z,16.38
2023-04-16T01:03:14.867Z,15.75
2023-04-16T01:05:46.064Z,14.75
2023-04-16T01:08:18.012Z,11.52
2023-04-16T01:10:46.714Z,15.73
2023-04-16T01:13:15.079Z,12.88
2023-04-16T01:15:43.422Z,16.73
2023-04-16T01:18:17.949Z,11.13
2023-04-16T01:20:48.612Z,15.05
2023-04-16T01:23:18.640Z,10.95
2023-04-16T01:25:47.488Z,10.63
2023-04-16T01:28:15.753Z,13.13
2023-04-16T01:30:44.084Z,9.68
2023-04-16T01:33:12.894Z,13.20
2023-04-16T01:35:41.699Z,14.55
2023-04-16T01:38:11.924Z,10.50
2023-04-16T01:40:40.419Z,12.20
2023-04-16T01:43:08.556Z,11.18
2023-04-16T01:45:37.311Z,9.70
2023-04-16T01:48:06.109Z,11.00
2023-04-16T01:50:34.936Z,10.05
2023-04-16T01:53:05.345Z,11.57
2023-04-16T01:55:35.268Z,13.13
2023-04-16T01:58:03.411Z,10.73
2023-04-16T02:00:32.170Z,14.65
2023-04-16T02:03:00.819Z,13.75
2023-04-16T02:05:29.117Z,12.75
2023-04-16T02:07:57.287Z,8.88
2023-04-16T02:10:25.869Z,9.07
2023-04-16T02:12:55.372Z,14.10
2023-04-16T02:15:24.434Z,12.48
2023-04-16T02:17:56.694Z,11.32
2023-04-16T02:20:25.589Z,14.00
2023-04-16T02:22:54.059Z,13.63
2023-04-16T02:25:23.123Z,11.35
2023-04-16T02:27:51.961Z,11.35
2023-04-16T02:30:21.733Z,13.95
2023-04-16T02:32:50.188Z,7.75
2023-04-16T02:35:18.878Z,7.80
2023-04-16T02:37:47.286Z,9.68
2023-04-16T02:40:15.865Z,9.60
2023-04-16T02:42:44.723Z,8.55
2023-04-16T02:45:13.837Z,8.77
2023-04-16T02:47:43.480Z,12.02
2023-04-16T02:50:12.689Z,8.65
2023-04-16T02:52:41.194Z,9.88
2023-04-16T02:55:10.545Z,11.13
2023-04-16T02:57:38.873Z,7.50
2023-04-16T03:00:08.715Z,9.13
2023-04-16T03:02:36.975Z,9.15
2023-04-16T03:05:07.617Z,9.13
2023-04-16T03:07:39.233Z,6.38
2023-04-16T03:10:09.158Z,6.68
2023-04-16T03:12:37.368Z,11.85
2023-04-16T03:15:06.325Z,11.82
2023-04-16T03:17:34.929Z,6.40
2023-04-16T03:20:03.577Z,9.30
2023-04-16T03:22:33.119Z,8.18
2023-04-16T03:25:01.820Z,12.15
2023-04-16T03:27:30.568Z,9.80
2023-04-16T03:29:58.848Z,10.77
2023-04-16T03:32:27.234Z,9.45
2023-04-16T03:34:55.533Z,10.02
2023-04-16T03:37:24.091Z,9.63
2023-04-16T03:39:54.126Z,11.10
2023-04-16T03:42:22.436Z,10.93
2023-04-16T03:44:50.988Z,9.82
2023-04-16T03:47:19.472Z,10.13
2023-04-16T03:49:47.894Z,9.75
2023-04-16T03:52:15.966Z,9.80
2023-04-16T03:54:44.274Z,8.43
2023-04-16T03:57:14.106Z,14.43
2023-04-16T03:59:42.276Z,8.77
2023-04-16T04:02:10.717Z,9.27
2023-04-16T04:04:38.948Z,10.20
2023-04-16T04:07:07.200Z,9.48
2023-04-16T04:09:35.543Z,12.50
2023-04-16T04:12:03.770Z,9.52
2023-04-16T04:14:33.524Z,7.80
2023-04-16T04:17:01.937Z,6.65
2023-04-16T04:19:30.070Z,9.10
2023-04-16T04:21:58.323Z,8.55
2023-04-16T04:24:27.373Z,11.05
2023-04-16T04:26:55.515Z,9.05
2023-04-16T04:29:24.054Z,9.73
2023-04-16T04:31:55.297Z,8.30
2023-04-16T04:34:23.457Z,9.38
2023-04-16T04:36:51.869Z,9.35
2023-04-16T04:39:21.763Z,12.15
2023-04-16T04:41:49.941Z,12.75
2023-04-16T04:44:18.297Z,10.98
2023-04-16T04:46:46.749Z,10.48
2023-04-16T04:49:16.207Z,10.63
2023-04-16T04:51:44.315Z,9.52
2023-04-16T04:54:12.949Z,13.30
2023-04-16T04:56:41.248Z,10.18
2023-04-16T04:59:09.556Z,10.15
2023-04-16T05:01:38.489Z,9.23
2023-04-16T05:04:07.016Z,11.60
2023-04-16T05:06:36.545Z,11.05
2023-04-16T05:09:05.125Z,10.43
2023-04-16T05:11:35.726Z,6.63
2023-04-16T05:14:04.002Z,9.18
2023-04-16T05:16:32.834Z,10.25
2023-04-16T05:19:01.185Z,9.95
2023-04-16T05:21:29.605Z,8.50
2023-04-16T05:24:00.009Z,9.68
2023-04-16T05:26:28.451Z,9.77
2023-04-16T05:28:56.633Z,7.22
2023-04-16T05:31:25.202Z,10.45
2023-04-16T05:33:53.607Z,8.63
2023-04-16T05:36:22.635Z,10.48
2023-04-16T05:38:51.103Z,9.55
2023-04-16T05:41:20.649Z,7.70
2023-04-16T05:43:49.062Z,10.30
2023-04-16T05:46:17.530Z,11.15
2023-04-16T05:48:45.702Z,12.52
2023-04-16T05:51:13.982Z,8.45
2023-04-16T05:53:42.585Z,10.55
2023-04-16T05:56:11.021Z,8.85
2023-04-16T05:58:40.559Z,9.70
2023-04-16T06:01:09.268Z,10.25
2023-04-16T06:03:37.475Z,11.38
2023-04-16T06:06:06.011Z,7.88
2023-04-16T06:08:34.761Z,9.40
2023-04-16T06:11:03.072Z,10.48
2023-04-16T06:13:31.359Z,12.18
2023-04-16T06:16:01.148Z,8.90
2023-04-16T06:18:29.326Z,11.07
2023-04-16T06:20:58.894Z,10.63
2023-04-16T06:23:27.359Z,11.98
2023-04-16T06:25:56.084Z,12.65
2023-04-16T06:28:24.409Z,13.10
2023-04-16T06:30:52.853Z,11.27
2023-04-16T06:33:22.740Z,13.13
2023-04-16T06:35:50.904Z,13.20
2023-04-16T06:38:20.230Z,12.50
2023-04-16T06:40:50.398Z,10.95
2023-04-16T06:43:18.682Z,11.13
2023-04-16T06:45:46.957Z,11.38
2023-04-16T06:48:15.170Z,13.23
2023-04-16T06:50:44.655Z,11.85
2023-04-16T06:53:13.149Z,13.15
2023-04-16T06:55:41.426Z,12.43
2023-04-16T06:58:09.600Z,12.15
2023-04-16T07:00:38.270Z,8.30
2023-04-16T07:03:06.708Z,11.82
2023-04-16T07:05:35.029Z,10.38
2023-04-16T07:08:05.036Z,10.93
2023-04-16T07:10:33.464Z,9.73
2023-04-16T07:13:02.603Z,9.95
2023-04-16T07:15:31.145Z,11.32
2023-04-16T07:17:59.335Z,10.70
2023-04-16T07:20:27.633Z,11.45
2023-04-16T07:22:55.898Z,11.32
2023-04-16T07:25:25.570Z,8.18
2023-04-16T07:27:53.902Z,12.38
2023-04-16T07:30:22.117Z,8.50
2023-04-16T07:32:50.428Z,9.40
2023-04-16T07:35:19.170Z,8.20
2023-04-16T07:37:47.415Z,13.15
2023-04-16T07:40:15.706Z,9.13
2023-04-16T07:42:45.320Z,11.15
2023-04-16T07:45:13.866Z,10.68
2023-04-16T07:47:42.069Z,10.25
2023-04-16T07:50:11.287Z,10.18
2023-04-16T07:52:41.524Z,11.88
2023-04-16T07:55:10.287Z,8.45
2023-04-16T07:57:38.563Z,9.23
2023-04-16T08:00:09.794Z,8.30
2023-04-16T08:02:38.020Z,9.93
2023-04-16T08:05:07.030Z,8.50
2023-04-16T08:07:35.723Z,8.63
2023-04-16T08:10:04.260Z,6.55
2023-04-16T08:12:32.428Z,8.52
2023-04-16T08:15:00.899Z,6.45
2023-04-16T08:17:30.508Z,8.13
2023-04-16T08:19:58.647Z,10.73
2023-04-16T08:22:27.609Z,9.63
2023-04-16T08:24:55.863Z,8.93
2023-04-16T08:27:23.996Z,8.98
2023-04-16T08:29:52.466Z,11.75
2023-04-16T08:32:20.829Z,8.95
2023-04-16T08:34:50.469Z,10.15
2023-04-16T08:37:18.860Z,8.63
2023-04-16T08:39:46.968Z,10.07
2023-04-16T08:42:24.770Z,14.55
2023-04-16T08:45:01.186Z,13.55
2023-04-16T08:47:32.296Z,15.30
2023-04-16T08:50:04.144Z,15.65
2023-04-16T08:52:33.325Z,11.57
2023-04-16T08:55:08.217Z,11.50
2023-04-16T08:57:42.245Z,9.27
2023-04-16T09:00:12.268Z,9.38
2023-04-16T09:02:40.931Z,10.52
2023-04-16T09:05:12.576Z,11.27
2023-04-16T09:07:42.764Z,10.77
2023-04-16T09:10:11.892Z,10.35
2023-04-16T09:12:41.481Z,13.00
2023-04-16T09:15:12.170Z,16.17
2023-04-16T09:17:40.627Z,10.75
2023-04-16T09:20:12.861Z,14.02
2023-04-16T09:22:41.250Z,10.95
2023-04-16T09:25:11.051Z,10.05
2023-04-16T09:27:40.053Z,13.02
2023-04-16T09:30:22.151Z,13.57
2023-04-16T09:32:51.194Z,11.63
2023-04-16T09:35:22.002Z,10.38
2023-04-16T09:37:57.943Z,11.32
2023-04-16T09:40:27.485Z,9.50
2023-04-16T09:43:00.837Z,8.25
2023-04-16T09:45:34.014Z,13.05
2023-04-16T09:48:06.126Z,14.55
2023-04-16T09:50:35.870Z,10.40
2023-04-16T09:53:04.856Z,12.50
2023-04-16T09:55:34.322Z,10.50
2023-04-16T09:58:03.049Z,13.85
2023-04-16T10:00:32.160Z,11.90
2023-04-16T10:03:07.564Z,13.18
2023-04-16T10:05:37.624Z,13.27
2023-04-16T10:08:13.434Z,11.43
2023-04-16T10:10:42.646Z,11.20
2023-04-16T10:13:12.717Z,10.10
2023-04-16T10:15:41.959Z,11.30
2023-04-16T10:18:10.852Z,10.05
2023-04-16T10:20:40.640Z,7.82
2023-04-16T10:23:09.273Z,8.80
2023-04-16T10:25:39.303Z,10.23
2023-04-16T10:28:08.497Z,10.05
2023-04-16T10:30:37.544Z,10.63
2023-04-16T10:33:07.111Z,10.27
2023-04-16T10:35:40.197Z,7.53
2023-04-16T10:41:06.072Z,10.57
2023-04-16T10:43:39.597Z,9.30
2023-04-16T10:46:32.984Z,9.50
2023-04-16T10:49:02.982Z,8.57
2023-04-16T10:51:32.570Z,10.48
2023-04-16T10:54:20.598Z,9.77
2023-04-16T10:56:51.903Z,8.10
2023-04-16T10:59:21.569Z,8.77
2023-04-16T11:01:52.578Z,15.10
2023-04-16T11:04:45.974Z,7.40
2023-04-16T11:07:22.178Z,10.37
2023-04-16T11:09:56.297Z,12.90
2023-04-16T11:12:29.112Z,10.68
2023-04-16T11:15:01.618Z,11.90
2023-04-16T11:17:33.305Z,11.98
2023-04-16T11:20:02.042Z,11.93
2023-04-16T11:22:30.575Z,13.27
2023-04-16T11:24:59.046Z,13.20
2023-04-16T11:27:28.611Z,12.90
2023-04-16T11:30:01.602Z,13.68
2023-04-16T11:32:32.545Z,10.77
2023-04-16T11:35:04.665Z,11.40
2023-04-16T11:37:37.341Z,11.27
2023-04-16T11:40:08.320Z,11.88
2023-04-16T11:42:38.532Z,12.10
2023-04-16T11:45:08.310Z,10.25
2023-04-16T11:47:45.384Z,13.05
2023-04-16T11:50:24.703Z,12.65
2023-04-16T11:52:53.973Z,11.40
2023-04-16T11:55:23.006Z,9.98
2023-04-16T11:57:52.937Z,11.57
2023-04-16T12:00:23.734Z,10.93
2023-04-16T12:02:54.849Z,10.73
2023-04-16T12:05:33.991Z,9.73
2023-04-16T12:08:03.740Z,10.80
2023-04-16T12:10:35.070Z,11.30
2023-04-16T12:13:15.524Z,10.57
2023-04-16T12:15:50.724Z,8.95
2023-04-16T12:18:20.455Z,10.40
2023-04-16T12:20:48.855Z,10.23
2023-04-16T12:23:27.841Z,10.95
2023-04-16T12:25:59.641Z,9.45
2023-04-16T12:28:34.021Z,11.65
2023-04-16T12:31:02.680Z,8.93
2023-04-16T12:33:31.556Z,11.05
2023-04-16T12:36:00.286Z,10.93
2023-04-16T12:38:29.217Z,10.57
2023-04-16T12:40:58.456Z,10.48
2023-04-16T12:43:26.807Z,11.10
2023-04-16T12:45:56.381Z,11.75
2023-04-16T12:48:24.708Z,11.95
2023-04-16T12:50:55.169Z,11.05
2023-04-16T12:53:23.484Z,15.00
2023-04-16T12:55:51.898Z,14.23
2023-04-16T12:58:20.322Z,18.00
2023-04-16T13:00:48.529Z,13.73
2023-04-16T13:03:18.484Z,15.02
2023-04-16T13:05:47.103Z,16.30
2023-04-16T13:08:15.274Z,13.20
2023-04-16T13:10:43.688Z,14.00
2023-04-16T13:13:11.882Z,14.93
2023-04-16T13:15:40.094Z,10.55
2023-04-16T13:18:08.277Z,11.43
2023-04-16T13:20:37.992Z,11.05
2023-04-16T13:23:06.316Z,12.48
2023-04-16T13:25:34.685Z,11.70
2023-04-16T13:28:03.156Z,11.95
2023-04-16T13:30:31.863Z,10.20
2023-04-16T13:33:01.159Z,10.73
2023-04-16T13:35:30.659Z,11.27
2023-04-16T13:38:00.194Z,11.45
2023-04-16T13:40:28.660Z,15.32
2023-04-16T13:42:56.918Z,11.77
2023-04-16T13:45:25.146Z,11.45
2023-04-16T13:47:53.593Z,12.02
2023-04-16T13:50:22.236Z,8.90
2023-04-16T13:52:50.426Z,11.07
2023-04-16T13:55:20.143Z,11.57
2023-04-16T13:57:49.727Z,13.95
2023-04-16T14:00:18.859Z,10.98
2023-04-16T14:02:48.814Z,12.35
2023-04-16T14:05:17.712Z,13.07
2023-04-16T14:07:46.354Z,11.32
2023-04-16T14:10:14.548Z,10.65
2023-04-16T14:12:44.629Z,11.25
2023-04-16T14:15:14.800Z,9.13
2023-04-16T14:17:44.133Z,9.05
2023-04-16T14:20:13.982Z,10.82
2023-04-16T14:22:43.908Z,8.75
2023-04-16T14:25:12.106Z,9.63
2023-04-16T14:27:41.349Z,8.85
2023-04-16T14:30:11.666Z,6.85
2023-04-16T14:32:39.828Z,9.32
2023-04-16T14:35:08.817Z,8.18
2023-04-16T14:37:38.418Z,8.70
2023-04-16T14:40:09.038Z,8.88
2023-04-16T14:42:38.009Z,9.32
2023-04-16T14:45:07.617Z,11.43
2023-04-16T14:47:38.171Z,8.65
2023-04-16T14:50:07.582Z,14.32
2023-04-16T14:52:35.788Z,8.93
2023-04-16T14:55:05.528Z,9.00
2023-04-16T14:57:34.024Z,8.90
2023-04-16T15:00:02.557Z,8.70
2023-04-16T15:02:30.959Z,9.85
2023-04-16T15:05:01.914Z,10.93
2023-04-16T15:07:30.266Z,7.80
2023-04-16T15:09:58.481Z,10.00
2023-04-16T15:12:26.925Z,10.27
2023-04-16T15:14:55.256Z,7.63
2023-04-16T15:17:23.604Z,9.18
2023-04-16T15:19:52.356Z,8.80
2023-04-16T15:22:21.918Z,13.43
2023-04-16T15:24:50.764Z,10.27
2023-04-16T15:27:19.580Z,9.25
2023-04-16T15:29:49.467Z,8.70
2023-04-16T15:32:17.823Z,10.18
2023-04-16T15:34:46.759Z,10.27
2023-04-16T15:37:15.522Z,9.82
2023-04-16T15:39:45.249Z,11.00
2023-04-16T15:42:13.683Z,15.32
2023-04-16T15:44:45.041Z,13.05
2023-04-16T15:47:13.256Z,18.08
2023-04-16T15:49:41.668Z,15.35
2023-04-16T15:52:11.176Z,17.52
2023-04-16T15:54:39.496Z,40.28
2023-04-16T15:57:09.249Z,31.15
2023-04-16T15:59:37.356Z,32.63
2023-04-16T16:02:06.095Z,39.30
2023-04-16T16:04:34.984Z,41.03
2023-04-16T16:07:04.502Z,42.50
2023-04-16T16:09:32.868Z,48.80
2023-04-16T16:12:01.113Z,54.42
2023-04-16T16:14:30.864Z,51.40
2023-04-16T16:16:59.050Z,48.95
2023-04-16T16:19:27.470Z,50.58
2023-04-16T16:21:55.940Z,50.40
2023-04-16T16:24:24.281Z,51.63
2023-04-16T16:26:52.639Z,52.50
2023-04-16T16:29:21.102Z,56.95
2023-04-16T16:31:50.922Z,53.72
2023-04-16T16:34:21.148Z,57.40
2023-04-16T16:36:50.134Z,54.67
2023-04-16T16:39:18.282Z,57.47
2023-04-16T16:41:47.878Z,55.38
2023-04-16T16:44:16.024Z,46.25
2023-04-16T16:46:44.410Z,35.83
2023-04-16T16:49:14.459Z,29.65
2023-04-16T16:51:42.722Z,24.65
2023-04-16T16:54:10.913Z,27.98
2023-04-16T16:56:39.546Z,24.55
2023-04-16T16:59:09.160Z,20.40
2023-04-16T17:01:37.525Z,18.63
2023-04-16T17:04:06.747Z,33.13
2023-04-16T17:06:36.394Z,30.80
2023-04-16T17:09:04.920Z,26.02
2023-04-16T17:11:33.257Z,23.20
2023-04-16T17:14:01.539Z,20.10
2023-04-16T17:16:29.778Z,23.42
2023-04-16T17:18:59.340Z,19.30
2023-04-16T17:21:27.952Z,18.23
2023-04-16T17:23:58.186Z,16.70
2023-04-16T17:26:26.520Z,14.55
2023-04-16T17:28:56.663Z,15.65
2023-04-16T17:31:26.883Z,15.18
2023-04-16T17:33:55.784Z,20.23
2023-04-16T17:36:25.503Z,20.10
2023-04-16T17:38:53.675Z,31.33
2023-04-16T17:41:23.639Z,32.90
2023-04-16T17:43:52.024Z,37.50
2023-04-16T17:46:20.252Z,34.08
2023-04-16T17:48:49.093Z,36.75
2023-04-16T17:51:17.354Z,35.03
2023-04-16T17:53:45.533Z,35.38
2023-04-16T17:56:15.312Z,36.50
2023-04-16T17:58:44.854Z,41.58
2023-04-16T18:01:13.109Z,42.90
2023-04-16T18:03:42.484Z,50.80
2023-04-16T18:06:10.798Z,47.30
2023-04-16T18:08:39.021Z,43.97
2023-04-16T18:11:10.612Z,41.20
2023-04-16T18:13:38.771Z,33.53
2023-04-16T18:16:14.808Z,30.70
2023-04-16T18:18:43.071Z,30.70
2023-04-16T18:21:11.305Z,28.50
2023-04-16T18:23:39.668Z,29.08
2023-04-16T18:26:09.381Z,23.33
2023-04-16T18:28:38.678Z,20.15
2023-04-16T18:31:08.527Z,19.27
2023-04-16T18:33:52.596Z,13.73
2023-04-16T18:36:23.844Z,14.25
2023-04-16T18:39:00.129Z,14.70
2023-04-16T18:41:30.957Z,13.23
2023-04-16T18:43:59.191Z,16.00
2023-04-16T18:46:28.764Z,14.32
2023-04-16T18:48:59.078Z,19.05
2023-04-16T18:51:27.436Z,17.15
2023-04-16T18:53:55.698Z,20.15
2023-04-16T18:56:24.165Z,17.95
2023-04-16T18:58:52.375Z,19.50
2023-04-16T19:01:20.654Z,18.92
2023-04-16T19:03:50.475Z,19.83
2023-04-16T19:06:18.661Z,22.73
2023-04-16T19:08:47.361Z,22.55
2023-04-16T19:11:15.576Z,21.73
2023-04-16T19:13:43.763Z,30.27
2023-04-16T19:16:12.484Z,32.03
2023-04-16T19:18:40.948Z,30.10
2023-04-16T19:21:11.032Z,26.15
2023-04-16T19:23:39.475Z,28.75
2023-04-16T19:26:07.793Z,27.70
2023-04-16T19:28:35.942Z,28.95
2023-04-16T19:31:04.395Z,29.13
2023-04-16T19:33:32.831Z,30.33
2023-04-16T19:36:01.872Z,29.63
2023-04-16T19:38:32.752Z,31.02
2023-04-16T19:41:01.452Z,28.88
2023-04-16T19:43:31.126Z,30.52
2023-04-16T19:45:59.523Z,31.42
2023-04-16T19:48:28.158Z,28.63
2023-04-16T19:50:56.612Z,25.40
2023-04-16T19:53:25.141Z,25.30
2023-04-16T19:55:54.852Z,21.17
2023-04-16T19:58:23.205Z,20.80
2023-04-16T20:00:51.553Z,19.90
2023-04-16T20:03:20.231Z,22.55
2023-04-16T20:05:49.823Z,20.23
2023-04-16T20:08:18.192Z,21.38
2023-04-16T20:10:46.534Z,19.08
2023-04-16T20:13:18.618Z,17.75
2023-04-16T20:15:47.299Z,15.75
2023-04-16T20:18:15.423Z,19.40
2023-04-16T20:20:43.893Z,16.73
2023-04-16T20:23:12.483Z,16.48
2023-04-16T20:25:42.711Z,17.52
2023-04-16T20:28:10.959Z,18.55
2023-04-16T20:30:40.644Z,16.65
2023-04-16T20:33:09.381Z,18.55
2023-04-16T20:35:38.329Z,17.00
2023-04-16T20:38:06.595Z,16.88
2023-04-16T20:40:38.842Z,17.33
2023-04-16T20:43:10.201Z,16.52
2023-04-16T20:45:41.042Z,18.65
2023-04-16T20:48:09.658Z,17.08
2023-04-16T20:50:38.092Z,15.27
2023-04-16T20:53:06.263Z,15.90
2023-04-16T20:55:34.736Z,17.83
2023-04-16T20:58:03.074Z,17.02
2023-04-16T21:00:31.351Z,18.88
2023-04-16T21:03:01.320Z,18.67
2023-04-16T21:05:30.075Z,17.13
2023-04-16T21:07:58.263Z,17.00
2023-04-16T21:10:26.591Z,18.73
2023-04-16T21:12:54.760Z,16.08
2023-04-16T21:15:22.960Z,19.58
2023-04-16T21:17:51.526Z,19.95
2023-04-16T21:20:21.279Z,18.20
2023-04-16T21:22:51.241Z,20.50
2023-04-16T21:25:19.634Z,18.77
2023-04-16T21:27:47.951Z,24.55
2023-04-16T21:30:16.838Z,20.35
2023-04-16T21:32:45.650Z,19.60
2023-04-16T21:35:14.033Z,20.38
2023-04-16T21:37:43.545Z,20.25
2023-04-16T21:40:12.440Z,17.27
2023-04-16T21:42:42.404Z,18.65
2023-04-16T21:45:11.466Z,19.15
2023-04-16T21:47:40.008Z,19.75
2023-04-16T21:50:09.531Z,20.40
2023-04-16T21:52:40.687Z,23.40
2023-04-16T21:55:11.213Z,21.67
2023-04-16T21:57:39.396Z,21.92
2023-04-16T22:00:12.501Z,26.45
2023-04-16T22:02:42.027Z,19.48
2023-04-16T22:05:11.565Z,19.35
2023-04-16T22:07:40.184Z,19.67
2023-04-16T22:10:12.962Z,19.95
2023-04-16T22:12:42.806Z,22.00
2023-04-16T22:15:11.872Z,19.52
2023-04-16T22:17:40.404Z,20.73
2023-04-16T22:20:12.040Z,25.38
2023-04-16T22:22:41.046Z,24.92
2023-04-16T22:25:11.414Z,27.65
2023-04-16T22:27:39.899Z,27.40
2023-04-16T22:30:09.454Z,26.55
2023-04-16T22:32:37.681Z,26.95
2023-04-16T22:35:06.926Z,27.95
2023-04-16T22:37:35.291Z,27.33
2023-04-16T22:40:07.294Z,28.25
2023-04-16T22:42:37.586Z,27.42
2023-04-16T22:45:07.403Z,28.33
2023-04-16T22:47:35.873Z,27.58
2023-04-16T22:50:04.997Z,28.02
2023-04-16T22:52:33.160Z,29.17
2023-04-16T22:55:01.380Z,28.02
2023-04-16T22:57:29.853Z,23.92
2023-04-16T22:59:59.972Z,21.77
2023-04-16T23:02:28.287Z,21.13
2023-04-16T23:04:56.655Z,20.30
2023-04-16T23:07:24.857Z,22.08
2023-04-16T23:09:53.326Z,23.42
2023-04-16T23:12:21.577Z,20.67
2023-04-16T23:14:49.772Z,18.45
2023-04-16T23:17:19.507Z,20.75
2023-04-16T23:19:47.741Z,20.13
2023-04-16T23:22:15.932Z,21.60
2023-04-16T23:24:44.109Z,23.20
2023-04-16T23:27:12.576Z,20.35
2023-04-16T23:29:40.743Z,21.85
2023-04-16T23:32:09.184Z,24.63
2023-04-16T23:34:38.813Z,24.85
2023-04-16T23:37:07.082Z,25.80
2023-04-16T23:39:35.578Z,25.30
2023-04-16T23:42:04.436Z,23.92
2023-04-16T23:44:32.968Z,21.42
2023-04-16T23:47:02.149Z,23.58
2023-04-16T23:49:30.631Z,23.45
2023-04-16T23:52:00.203Z,25.85
2023-04-16T23:54:28.443Z,28.02
2023-04-16T23:56:57.129Z,33.03
2023-04-16T23:59:25.483Z,33.38
